Time;durP1;ratioP1;P1;durP2;ratioP2;P2;SDS_P1;SDS_P2;PMS_P1;PMS_P2;Temp;Humidity;BMP_temperature;BMP_pressure;BME280_temperature;BME280_humidity;BME280_pressure;Samples;Min_cycle;Max_cycle;Signal;HPM_P1;HPM_P2
2023/10/09 00:01:46;;;;;;;0.32;0.32;;;14.00;99.90;;;;;;5147010;27;20508;-63
2023/10/09 00:04:13;;;;;;;1.00;0.30;;;14.10;99.90;;;;;;5147117;27;20408;-61
2023/10/09 00:06:41;;;;;;;0.10;0.10;;;13.80;99.90;;;;;;5113774;28;20068;-61
2023/10/09 00:11:44;;;;;;;0.10;0.10;;;14.00;99.90;;;;;;5113994;28;20567;-62
2023/10/09 00:14:11;;;;;;;0.47;0.47;;;14.00;99.90;;;;;;5113706;28;20792;-61
2023/10/09 00:16:43;;;;;;;1.30;1.20;;;14.20;99.90;;;;;;5113899;28;20555;-61
2023/10/09 00:19:17;;;;;;;0.20;0.20;;;13.70;99.90;;;;;;5113870;28;20040;-62
2023/10/09 00:21:47;;;;;;;0.30;0.28;;;13.90;99.90;;;;;;5113729;28;20491;-63
2023/10/09 00:24:13;;;;;;;0.17;0.17;;;14.40;99.90;;;;;;5113667;28;20058;-62
2023/10/09 00:26:44;;;;;;;;;;;14.30;99.90;;;;;;5112860;28;20507;-62
2023/10/09 00:29:15;;;;;;;0.25;0.25;;;14.20;99.90;;;;;;5113482;28;19920;-62
2023/10/09 00:31:50;;;;;;;0.57;0.57;;;14.00;99.90;;;;;;5113397;28;20059;-61
2023/10/09 00:34:22;;;;;;;0.17;0.17;;;13.90;99.90;;;;;;5113609;28;20040;-62
2023/10/09 00:36:51;;;;;;;0.40;0.20;;;13.60;99.90;;;;;;5113399;28;20118;-61
2023/10/09 00:42:15;;;;;;;0.20;0.20;;;14.00;99.90;;;;;;5104654;28;20138;-62
2023/10/09 00:44:42;;;;;;;0.52;0.52;;;13.80;99.90;;;;;;5113070;28;20606;-63
2023/10/09 00:47:21;;;;;;;0.10;0.10;;;14.10;99.90;;;;;;5113119;28;20126;-62
2023/10/09 00:50:20;;;;;;;0.32;0.32;;;14.40;99.90;;;;;;5113288;28;20090;-62
2023/10/09 00:52:50;;;;;;;0.43;0.30;;;13.60;99.90;;;;;;5113200;28;20126;-62
2023/10/09 00:55:27;;;;;;;0.32;0.32;;;14.20;99.90;;;;;;5113515;28;20415;-62
2023/10/09 00:57:58;;;;;;;0.57;0.57;;;14.10;99.90;;;;;;5112955;28;20484;-61
2023/10/09 01:00:45;;;;;;;1.95;1.25;;;13.80;99.90;;;;;;5112940;28;20053;-62
2023/10/09 01:05:57;;;;;;;1.05;0.50;;;14.30;99.90;;;;;;5112852;28;20058;-61
2023/10/09 01:11:09;;;;;;;0.30;0.30;;;14.30;99.90;;;;;;5112615;28;20059;-63
2023/10/09 01:16:21;;;;;;;0.65;0.20;;;14.40;99.90;;;;;;5112935;28;20483;-62
2023/10/09 01:18:57;;;;;;;0.70;0.70;;;13.70;99.90;;;;;;5112708;28;20411;-62
2023/10/09 01:21:32;;;;;;;0.73;0.68;;;14.00;99.90;;;;;;5112564;28;20048;-62
2023/10/09 01:24:04;;;;;;;2.58;0.60;;;14.00;99.90;;;;;;5112337;28;20048;-62
2023/10/09 01:26:34;;;;;;;0.50;0.50;;;14.30;99.90;;;;;;5112531;28;20051;-61
2023/10/09 01:29:00;;;;;;;0.80;0.80;;;13.90;99.90;;;;;;5112519;28;20047;-62
2023/10/09 01:31:27;;;;;;;0.55;0.55;;;14.80;99.90;;;;;;5112313;28;20043;-61
2023/10/09 01:33:59;;;;;;;2.85;0.90;;;14.60;99.90;;;;;;5112231;28;20047;-62
2023/10/09 01:36:31;;;;;;;0.65;0.55;;;14.40;99.90;;;;;;5111839;28;20494;-62
2023/10/09 01:38:59;;;;;;;5.88;0.90;;;13.90;99.90;;;;;;5112336;27;20051;-61
2023/10/09 01:41:25;;;;;;;1.27;1.17;;;14.10;99.90;;;;;;5112146;28;20047;-63
2023/10/09 01:44:00;;;;;;;1.02;0.98;;;14.40;99.90;;;;;;5112026;28;20044;-62
2023/10/09 01:46:26;;;;;;;0.77;0.77;;;13.70;99.90;;;;;;5112076;28;20057;-61
2023/10/09 01:48:53;;;;;;;1.35;1.05;;;12.70;99.90;;;;;;5111936;28;20558;-62
2023/10/09 01:51:20;;;;;;;1.13;0.80;;;13.90;99.90;;;;;;5112125;28;20057;-61
2023/10/09 01:53:53;;;;;;;1.98;1.80;;;14.10;99.90;;;;;;5112088;28;20039;-61
2023/10/09 01:56:19;;;;;;;1.00;1.00;;;14.00;99.90;;;;;;5112039;28;20068;-61
2023/10/09 01:58:47;;;;;;;1.25;0.75;;;14.50;99.90;;;;;;5110711;28;20518;-61
2023/10/09 02:01:14;;;;;;;0.77;0.77;;;14.20;99.90;;;;;;5111999;28;20122;-61
2023/10/09 02:03:42;;;;;;;1.27;0.90;;;14.10;99.90;;;;;;5112116;28;20051;-61
2023/10/09 02:06:26;;;;;;;0.88;0.70;;;14.40;99.90;;;;;;5112008;28;20087;-61
2023/10/09 02:08:56;;;;;;;1.20;0.65;;;14.50;99.90;;;;;;5111970;28;20156;-61
2023/10/09 02:11:36;;;;;;;1.38;0.88;;;13.90;99.90;;;;;;5111779;28;20090;-61
2023/10/09 02:14:05;;;;;;;1.65;1.30;;;14.60;99.90;;;;;;5111693;28;20094;-61
2023/10/09 02:16:41;;;;;;;0.93;0.80;;;13.80;99.90;;;;;;5111843;28;20047;-62
2023/10/09 02:19:29;;;;;;;1.60;1.20;;;14.10;99.90;;;;;;5111837;28;20469;-62
2023/10/09 02:21:56;;;;;;;3.97;1.00;;;14.00;99.90;;;;;;5111675;28;20047;-62
2023/10/09 02:28:17;;;;;;;1.20;0.65;;;14.40;99.90;;;;;;5068590;28;20060;-62
2023/10/09 02:30:27;;;;;;;6.38;0.80;;;14.10;99.90;;;;;;5063111;28;20504;-62
2023/10/09 02:32:58;;;;;;;2.70;2.50;;;14.00;99.90;;;;;;5097502;28;20059;-61
2023/10/09 02:35:42;;;;;;;1.15;1.05;;;13.80;99.90;;;;;;5111726;28;20050;-61
2023/10/09 02:38:11;;;;;;;1.33;1.17;;;14.10;99.90;;;;;;5111405;28;20047;-62
2023/10/09 02:40:53;;;;;;;0.73;0.73;;;13.80;99.90;;;;;;5111346;28;20059;-61
2023/10/09 02:43:19;;;;;;;1.08;1.08;;;14.10;99.90;;;;;;5111298;28;20040;-61
2023/10/09 02:45:50;;;;;;;1.38;1.35;;;14.30;99.90;;;;;;5111557;28;20046;-61
2023/10/09 02:48:25;;;;;;;2.40;1.38;;;14.10;99.90;;;;;;5111675;28;20100;-61
2023/10/09 02:50:51;;;;;;;43.80;2.13;;;14.30;99.90;;;;;;5115417;28;20048;-62
2023/10/09 02:53:29;;;;;;;3.13;1.65;;;14.70;99.90;;;;;;5115254;28;20039;-62
2023/10/09 02:56:12;;;;;;;1.77;1.27;;;14.10;99.90;;;;;;5115306;28;20098;-61
2023/10/09 02:58:42;;;;;;;3.65;1.83;;;14.40;99.90;;;;;;5115330;28;20541;-61
2023/10/09 03:01:15;;;;;;;1.30;1.20;;;14.60;99.90;;;;;;5115316;28;20514;-62
2023/10/09 03:03:48;;;;;;;2.28;2.08;;;14.20;99.90;;;;;;5114997;27;20062;-61
2023/10/09 03:06:19;;;;;;;2.60;1.40;;;14.50;99.90;;;;;;5114982;28;20406;-61
2023/10/09 03:08:47;;;;;;;3.05;1.80;;;14.00;99.90;;;;;;5114147;28;20044;-61
2023/10/09 03:11:13;;;;;;;3.90;2.25;;;14.80;99.90;;;;;;5115364;28;20162;-64
2023/10/09 03:13:44;;;;;;;4.75;1.63;;;15.00;99.90;;;;;;5148347;27;20516;-62
2023/10/09 03:16:19;;;;;;;2.35;1.95;;;13.90;99.90;;;;;;5115120;28;20492;-60
2023/10/09 03:19:03;;;;;;;1.92;1.38;;;14.80;99.90;;;;;;5114933;28;20048;-61
2023/10/09 03:21:29;;;;;;;0.88;0.88;;;14.10;99.90;;;;;;5115295;28;20188;-61
2023/10/09 03:23:56;;;;;;;2.22;1.75;;;15.10;99.90;;;;;;5114730;28;20152;-61
2023/10/09 03:26:25;;;;;;;0.80;0.80;;;15.00;99.90;;;;;;5114715;28;20050;-61
2023/10/09 03:28:52;;;;;;;3.38;2.67;;;14.40;99.90;;;;;;5114562;28;20486;-61
2023/10/09 03:31:18;;;;;;;2.13;1.55;;;14.40;99.90;;;;;;5114422;28;20051;-63
2023/10/09 03:33:44;;;;;;;4.45;2.20;;;15.30;99.90;;;;;;5114619;28;20084;-61
2023/10/09 03:36:09;;;;;;;;;;;15.30;99.90;;;;;;5114951;28;20776;-62
2023/10/09 03:38:39;;;;;;;1.17;1.08;;;15.10;99.90;;;;;;5113049;28;19923;-62
2023/10/09 03:41:05;;;;;;;1.85;1.35;;;14.60;99.90;;;;;;5114255;28;20051;-62
2023/10/09 03:43:41;;;;;;;1.67;1.30;;;15.00;99.90;;;;;;5114005;28;20412;-61
2023/10/09 03:46:20;;;;;;;3.17;2.45;;;14.50;99.90;;;;;;5114240;28;20192;-61
2023/10/09 03:48:50;;;;;;;4.07;1.20;;;15.00;99.90;;;;;;5114240;28;20058;-61
2023/10/09 03:51:22;;;;;;;0.90;0.77;;;14.90;99.90;;;;;;5114059;28;20138;-62
2023/10/09 03:53:48;;;;;;;0.73;0.73;;;15.00;99.90;;;;;;5113981;28;20555;-61
2023/10/09 03:56:16;;;;;;;1.05;0.80;;;15.80;99.90;;;;;;5113637;28;20047;-61
2023/10/09 03:58:44;;;;;;;3.97;1.42;;;15.50;99.90;;;;;;5113855;27;20047;-61
2023/10/09 04:01:27;;;;;;;4.28;1.35;;;15.60;99.90;;;;;;5113746;28;20058;-61
2023/10/09 04:03:55;;;;;;;0.88;0.88;;;15.30;99.90;;;;;;5113632;28;20051;-62
2023/10/09 04:06:23;;;;;;;1.77;1.08;;;15.20;99.90;;;;;;5113601;28;20059;-60
2023/10/09 04:08:51;;;;;;;3.22;1.20;;;16.00;99.90;;;;;;5113387;28;20043;-61
2023/10/09 04:11:17;;;;;;;1.92;1.38;;;15.20;99.90;;;;;;5113577;28;20522;-61
2023/10/09 04:13:46;;;;;;;1.17;1.08;;;16.20;99.90;;;;;;5113647;28;20047;-60
2023/10/09 04:19:05;;;;;;;1.23;0.80;;;15.10;99.90;;;;;;5113549;28;20502;-60
2023/10/09 04:21:34;;;;;;;0.43;0.43;;;14.80;99.90;;;;;;5113625;28;20040;-60
2023/10/09 04:26:45;;;;;;;0.52;0.52;;;16.00;99.90;;;;;;5113343;28;20555;-59
2023/10/09 04:29:26;;;;;;;0.65;0.65;;;15.40;99.90;;;;;;5113300;28;20047;-60
2023/10/09 04:32:00;;;;;;;1.55;0.80;;;16.20;99.90;;;;;;5113144;28;20368;-60
2023/10/09 04:34:36;;;;;;;1.10;0.75;;;14.80;99.90;;;;;;5113276;28;20101;-60
2023/10/09 04:40:10;;;;;;;2.67;1.52;;;16.20;99.90;;;;;;5113069;28;20059;-60
2023/10/09 04:42:37;;;;;;;1.25;0.65;;;15.20;99.90;;;;;;5112646;28;20056;-60
2023/10/09 04:47:36;;;;;;;0.60;0.47;;;14.80;99.90;;;;;;5112844;28;20070;-60
2023/10/09 04:50:11;;;;;;;2.67;1.60;;;15.30;99.90;;;;;;5112928;28;20059;-61
2023/10/09 05:03:13;;;;;;;0.30;0.30;;;16.10;99.90;;;;;;5112346;27;20059;-60
2023/10/09 05:16:05;;;;;;;0.90;0.65;;;15.70;99.90;;;;;;5112633;28;20061;-60
2023/10/09 05:18:37;;;;;;;;;;;15.40;99.90;;;;;;5112868;28;20043;-59
2023/10/09 05:24:23;;;;;;;2.25;1.75;;;15.30;99.90;;;;;;5112328;28;20050;-60
2023/10/09 05:31:57;;;;;;;0.60;0.60;;;15.50;99.90;;;;;;5112043;28;20048;-60
2023/10/09 05:34:23;;;;;;;1.20;1.10;;;15.50;99.90;;;;;;5112026;28;20540;-59
2023/10/09 05:36:52;;;;;;;1.25;0.82;;;16.50;99.90;;;;;;5112144;28;20127;-59
2023/10/09 05:39:18;;;;;;;1.20;0.57;;;15.10;99.90;;;;;;5112084;28;20039;-60
2023/10/09 05:41:52;;;;;;;0.73;0.73;;;15.90;99.90;;;;;;5112207;28;20047;-59
2023/10/09 05:49:54;;;;;;;1.63;1.02;;;16.50;99.90;;;;;;5112230;28;20598;-60
2023/10/09 05:53:04;;;;;;;1.75;0.77;;;15.40;99.90;;;;;;5111935;28;20165;-59
2023/10/09 06:09:09;;;;;;;0.90;0.80;;;15.90;99.90;;;;;;5111667;28;20087;-60
2023/10/09 06:14:49;;;;;;;0.85;0.70;;;16.00;99.90;;;;;;5063155;28;20056;-62
2023/10/09 06:19:43;;;;;;;0.93;0.93;;;16.00;99.90;;;;;;5110814;27;20058;-61
2023/10/09 06:24:54;;;;;;;2.47;1.50;;;16.50;99.90;;;;;;5134903;27;20167;-60
2023/10/09 06:27:38;;;;;;;3.25;1.15;;;15.60;99.90;;;;;;5136611;27;20755;-60
2023/10/09 06:30:15;;;;;;;0.70;0.68;;;16.10;99.90;;;;;;5136442;27;20058;-60
2023/10/09 06:35:31;;;;;;;0.52;0.52;;;16.30;99.90;;;;;;5136170;27;20128;-60
2023/10/09 06:43:26;;;;;;;0.98;0.88;;;15.30;99.90;;;;;;5135805;27;20076;-60
2023/10/09 06:48:40;;;;;;;0.47;0.47;;;15.20;99.90;;;;;;5135890;27;20146;-61
2023/10/09 07:01:47;;;;;;;1.33;1.20;;;16.20;99.90;;;;;;5135669;27;20058;-60
2023/10/09 07:04:19;;;;;;;0.60;0.60;;;15.50;99.90;;;;;;5135762;27;20069;-59
2023/10/09 07:17:15;;;;;;;2.40;1.00;;;16.70;99.90;;;;;;5135557;27;20071;-61
2023/10/09 07:24:57;;;;;;;3.00;1.35;;;15.80;99.90;;;;;;5135190;27;20100;-60
2023/10/09 07:27:48;;;;;;;3.88;0.70;;;16.00;99.90;;;;;;5135449;27;20420;-61
2023/10/09 07:38:09;;;;;;;0.25;0.25;;;15.70;99.90;;;;;;5114213;28;20187;-60
2023/10/09 07:46:30;;;;;;;0.50;0.50;;;16.20;99.90;;;;;;5093792;28;20106;-60
2023/10/09 07:49:08;;;;;;;2.30;2.10;;;16.10;99.90;;;;;;5096585;28;20506;-60
2023/10/09 07:51:36;;;;;;;2.63;0.80;;;15.70;99.90;;;;;;5122842;27;20050;-59
2023/10/09 07:54:09;;;;;;;1.70;1.15;;;15.80;99.90;;;;;;5129919;27;20051;-59
2023/10/09 07:56:41;;;;;;;0.88;0.82;;;16.60;99.90;;;;;;5113829;28;20051;-59
2023/10/09 07:59:10;;;;;;;2.13;0.85;;;15.80;99.90;;;;;;5112885;28;20086;-59
2023/10/09 08:02:02;;;;;;;1.13;1.05;;;16.20;99.90;;;;;;5113530;28;20062;-60
2023/10/09 08:04:37;;;;;;;1.17;1.08;;;15.10;99.90;;;;;;5113060;28;20047;-59
2023/10/09 08:07:07;;;;;;;0.50;0.50;;;15.40;99.90;;;;;;5113337;28;20050;-58
2023/10/09 08:10:43;;;;;;;1.77;0.73;;;15.70;99.90;;;;;;5113392;28;20411;-60
2023/10/09 08:18:09;;;;;;;4.90;1.05;;;16.00;99.90;;;;;;5113361;28;20047;-57
2023/10/09 08:23:33;;;;;;;3.05;1.08;;;16.20;99.90;;;;;;5113129;28;20051;-60
2023/10/09 08:26:14;;;;;;;0.85;0.85;;;15.50;99.90;;;;;;5113184;28;20052;-59
2023/10/09 08:28:45;;;;;;;0.68;0.68;;;17.00;99.90;;;;;;5110931;28;20044;-59
2023/10/09 08:33:59;;;;;;;0.90;0.90;;;17.00;99.90;;;;;;5112985;28;20071;-59
2023/10/09 08:36:28;;;;;;;;;;;15.40;99.90;;;;;;5124128;27;20637;-61
2023/10/09 08:38:58;;;;;;;0.38;0.38;;;16.60;99.90;;;;;;5131043;27;19919;-63
2023/10/09 08:41:25;;;;;;;3.95;1.20;;;15.50;99.90;;;;;;5103483;27;20032;-59
2023/10/09 08:43:53;;;;;;;1.17;0.75;;;16.90;99.90;;;;;;5111748;28;20108;-59
2023/10/09 08:46:21;;;;;;;2.20;0.80;;;16.40;99.90;;;;;;5111474;28;20146;-60
2023/10/09 08:48:48;;;;;;;1.38;1.25;;;15.80;99.90;;;;;;5112350;28;20103;-61
2023/10/09 08:51:14;;;;;;;0.85;0.75;;;17.20;99.90;;;;;;5112612;28;20736;-60
2023/10/09 08:53:43;;;;;;;;;;;15.80;99.90;;;;;;5112899;28;20127;-59
2023/10/09 08:56:14;;;;;;;0.63;0.63;;;16.50;99.90;;;;;;5117560;27;19923;-61
2023/10/09 08:58:41;;;;;;;0.98;0.85;;;16.60;99.90;;;;;;5129946;27;20052;-59
2023/10/09 09:01:06;;;;;;;0.93;0.88;;;16.80;99.90;;;;;;5115186;27;20043;-59
2023/10/09 09:03:40;;;;;;;;;;;16.60;99.90;;;;;;5112003;28;20107;-60
2023/10/09 09:06:06;;;;;;;0.28;0.28;;;16.40;99.90;;;;;;5112120;28;19919;-60
2023/10/09 09:08:36;;;;;;;;;;;15.90;99.90;;;;;;5112635;28;20533;-61
2023/10/09 09:14:18;;;;;;;1.25;0.57;;;17.00;99.90;;;;;;5112256;28;20047;-59
2023/10/09 09:16:48;;;;;;;0.70;0.47;;;16.80;99.90;;;;;;5120315;27;20054;-59
2023/10/09 09:19:17;;;;;;;3.13;1.38;;;16.90;99.90;;;;;;5128708;27;20111;-59
2023/10/09 09:21:54;;;;;;;2.25;0.63;;;16.90;99.90;;;;;;5111836;28;20066;-59
2023/10/09 09:26:59;;;;;;;0.63;0.63;;;16.20;99.90;;;;;;5112118;28;20018;-60
2023/10/09 09:29:39;;;;;;;1.85;1.52;;;16.10;99.90;;;;;;5110309;28;20108;-60
2023/10/09 09:32:20;;;;;;;1.42;1.00;;;17.20;99.90;;;;;;5111990;28;20445;-60
2023/10/09 09:35:05;;;;;;;0.32;0.32;;;15.90;99.90;;;;;;5112193;28;20165;-59
2023/10/09 09:37:54;;;;;;;1.77;0.57;;;16.90;99.90;;;;;;5112157;28;20047;-61
2023/10/09 09:40:32;;;;;;;4.90;3.08;;;17.50;99.90;;;;;;5111583;28;20483;-60
2023/10/09 09:43:05;;;;;;;0.47;0.47;;;17.30;99.90;;;;;;5112040;28;20055;-60
2023/10/09 09:45:38;;;;;;;1.08;0.38;;;16.60;99.90;;;;;;5112297;28;20040;-60
2023/10/09 09:48:06;;;;;;;1.02;0.95;;;17.50;99.90;;;;;;5112080;28;20051;-59
2023/10/09 09:50:43;;;;;;;1.13;0.60;;;16.30;99.90;;;;;;5111999;28;20047;-59
2023/10/09 09:53:11;;;;;;;7.13;0.47;;;17.20;99.90;;;;;;5110705;28;20040;-61
2023/10/09 09:55:41;;;;;;;0.98;0.77;;;16.70;99.90;;;;;;5112080;28;20040;-60
2023/10/09 09:58:18;;;;;;;1.50;1.35;;;17.10;99.90;;;;;;5112073;28;20090;-60
2023/10/09 10:00:45;;;;;;;1.00;0.95;;;16.30;99.90;;;;;;5110835;28;20080;-60
2023/10/09 10:03:14;;;;;;;2.03;1.10;;;17.40;99.90;;;;;;5111596;28;20051;-61
2023/10/09 10:05:46;;;;;;;0.20;0.20;;;17.50;99.90;;;;;;5111767;28;20047;-60
2023/10/09 10:08:19;;;;;;;0.22;0.22;;;16.40;99.90;;;;;;5111988;28;20051;-61
2023/10/09 10:13:42;;;;;;;1.15;1.05;;;16.80;99.90;;;;;;5111634;28;20079;-59
2023/10/09 10:16:13;;;;;;;0.45;0.40;;;17.10;99.90;;;;;;5111928;28;20048;-62
2023/10/09 10:19:07;;;;;;;0.52;0.52;;;16.20;99.90;;;;;;5108335;28;20051;-60
2023/10/09 10:21:39;;;;;;;2.40;1.60;;;17.30;99.90;;;;;;5104079;28;20495;-61
2023/10/09 10:24:32;;;;;;;0.70;0.70;;;16.50;99.90;;;;;;5108673;28;20049;-61
2023/10/09 10:27:09;;;;;;;0.40;0.40;;;16.20;99.90;;;;;;5103956;28;20380;-60
2023/10/09 10:29:38;;;;;;;0.35;0.35;;;16.10;99.90;;;;;;5116700;28;20083;-60
2023/10/09 10:32:08;;;;;;;1.38;0.85;;;16.30;99.90;;;;;;5111501;28;20563;-60
2023/10/09 10:34:55;;;;;;;0.98;0.88;;;16.00;99.90;;;;;;5111284;27;21015;-60
2023/10/09 10:37:32;;;;;;;2.50;0.93;;;16.70;99.90;;;;;;5104249;28;20058;-60
2023/10/09 10:40:02;;;;;;;0.80;0.80;;;16.90;99.90;;;;;;5116255;28;20132;-62
2023/10/09 10:42:34;;;;;;;0.80;0.80;;;16.20;99.90;;;;;;5120681;28;20090;-61
2023/10/09 10:45:15;;;;;;;3.20;1.95;;;17.00;99.90;;;;;;5126742;28;20047;-60
2023/10/09 10:47:42;;;;;;;0.85;0.75;;;16.50;99.90;;;;;;5132245;27;20051;-60
2023/10/09 10:52:57;;;;;;;0.30;0.30;;;17.20;99.90;;;;;;5119546;27;20047;-60
2023/10/09 10:58:01;;;;;;;0.10;0.10;;;16.30;99.90;;;;;;5101250;28;20407;-60
2023/10/09 11:03:35;;;;;;;1.15;1.00;;;16.70;99.90;;;;;;5087180;28;20091;-59
2023/10/09 11:06:13;;;;;;;0.50;0.50;;;17.20;99.90;;;;;;5088075;28;20078;-59
2023/10/09 11:08:54;;;;;;;0.73;0.73;;;16.90;99.90;;;;;;5100888;28;20392;-60
2023/10/09 11:11:20;;;;;;;0.50;0.50;;;17.00;99.90;;;;;;5113445;28;20090;-60
2023/10/09 11:13:58;;;;;;;0.32;0.17;;;17.20;99.90;;;;;;5114675;28;20039;-59
2023/10/09 11:16:47;;;;;;;0.20;0.20;;;16.40;99.90;;;;;;5113875;28;20051;-60
2023/10/09 11:24:35;;;;;;;1.48;1.35;;;17.50;99.90;;;;;;5111655;28;20112;-61
2023/10/09 11:27:06;;;;;;;0.55;0.55;;;17.00;99.90;;;;;;5113275;28;20051;-59
2023/10/09 11:32:25;;;;;;;0.50;0.50;;;17.60;99.90;;;;;;5128992;27;20058;-59
2023/10/09 11:35:10;;;;;;;0.60;0.60;;;16.60;99.90;;;;;;5134628;27;20644;-60
2023/10/09 11:37:42;;;;;;;0.43;0.43;;;17.60;99.90;;;;;;5134862;27;20039;-59
2023/10/09 11:40:30;;;;;;;0.93;0.85;;;16.70;99.90;;;;;;5134960;27;20043;-60
2023/10/09 11:43:00;;;;;;;0.52;0.47;;;17.40;99.90;;;;;;5134661;27;20042;-60
2023/10/09 11:45:31;;;;;;;0.30;0.30;;;17.50;99.90;;;;;;5134632;27;20108;-59
2023/10/09 11:48:20;;;;;;;0.17;0.17;;;16.90;99.90;;;;;;5134559;27;20058;-59
2023/10/09 11:51:13;;;;;;;3.38;0.93;;;16.60;99.90;;;;;;5134376;27;20043;-59
2023/10/09 11:53:43;;;;;;;1.17;1.10;;;17.60;99.90;;;;;;5134451;27;20035;-60
2023/10/09 11:56:14;;;;;;;0.70;0.70;;;17.10;99.90;;;;;;5134140;27;20039;-60
2023/10/09 11:58:40;;;;;;;0.43;0.43;;;17.70;99.90;;;;;;5134583;27;20059;-61
2023/10/09 12:01:22;;;;;;;0.30;0.30;;;17.60;99.90;;;;;;5134021;27;20439;-59
2023/10/09 12:03:51;;;;;;;0.80;0.80;;;16.90;99.90;;;;;;5133810;27;20055;-61
2023/10/09 12:06:22;;;;;;;0.45;0.45;;;17.10;99.90;;;;;;5134107;27;20364;-59
2023/10/09 12:08:48;;;;;;;0.28;0.28;;;17.50;99.90;;;;;;5134131;27;20510;-59
2023/10/09 12:11:22;;;;;;;1.60;0.73;;;17.10;99.90;;;;;;5134185;27;20053;-61
2023/10/09 12:13:48;;;;;;;0.52;0.30;;;17.90;99.90;;;;;;5134042;27;20050;-59
2023/10/09 12:16:15;;;;;;;0.10;0.10;;;17.60;99.90;;;;;;5133768;27;20050;-60
2023/10/09 12:18:42;;;;;;;0.35;0.25;;;17.50;99.90;;;;;;5133841;27;20391;-61
2023/10/09 12:21:15;;;;;;;10.77;0.77;;;17.50;99.90;;;;;;5133890;27;20046;-59
2023/10/09 12:23:43;;;;;;;1.35;0.70;;;16.90;99.90;;;;;;5134066;27;20099;-60
2023/10/09 12:26:14;;;;;;;0.47;0.30;;;17.60;99.90;;;;;;5134031;27;20098;-61
2023/10/09 12:28:40;;;;;;;4.75;1.45;;;17.70;99.90;;;;;;5133593;27;20062;-61
2023/10/09 12:31:06;;;;;;;0.40;0.40;;;17.70;99.90;;;;;;5133730;27;20050;-60
2023/10/09 12:33:32;;;;;;;0.15;0.15;;;16.90;99.90;;;;;;5133344;27;20039;-60
2023/10/09 12:36:01;;;;;;;0.20;0.20;;;17.70;99.90;;;;;;5133543;27;20513;-59
2023/10/09 12:38:33;;;;;;;0.43;0.43;;;17.50;99.90;;;;;;5133477;27;20398;-60
2023/10/09 12:41:20;;;;;;;0.32;0.32;;;16.90;99.90;;;;;;5133612;27;20164;-60
2023/10/09 12:43:49;;;;;;;0.20;0.20;;;17.60;99.90;;;;;;5130808;27;20453;-61
2023/10/09 12:46:17;;;;;;;0.40;0.40;;;17.30;99.90;;;;;;5132980;27;20093;-60
2023/10/09 12:48:46;;;;;;;0.38;0.38;;;16.80;99.90;;;;;;5133389;27;20047;-60
2023/10/09 12:51:16;;;;;;;0.10;0.10;;;17.50;99.90;;;;;;5133209;27;20489;-60
2023/10/09 12:53:42;;;;;;;0.63;0.57;;;17.10;99.90;;;;;;5133003;27;20082;-60
2023/10/09 12:56:09;;;;;;;1.45;0.70;;;17.70;99.90;;;;;;5132486;27;20112;-60
2023/10/09 12:58:37;;;;;;;1.05;0.95;;;17.50;99.90;;;;;;5132758;27;20050;-59
2023/10/09 13:01:09;;;;;;;0.57;0.38;;;18.00;99.90;;;;;;5133247;27;20086;-61
2023/10/09 13:03:38;;;;;;;0.30;0.30;;;17.50;99.90;;;;;;5132762;27;20066;-60
2023/10/09 13:06:10;;;;;;;0.38;0.38;;;17.90;99.90;;;;;;5126109;27;20082;-60
2023/10/09 13:08:36;;;;;;;1.02;0.70;;;17.40;99.90;;;;;;5112171;28;20051;-61
2023/10/09 13:11:16;;;;;;;0.20;0.20;;;17.10;99.90;;;;;;5111323;28;20090;-61
2023/10/09 13:13:47;;;;;;;0.38;0.38;;;17.30;99.90;;;;;;5112318;28;20125;-60
2023/10/09 13:16:27;;;;;;;2.20;0.40;;;17.80;99.90;;;;;;5112092;28;20055;-60
2023/10/09 13:18:58;;;;;;;0.38;0.38;;;16.90;99.90;;;;;;5112198;28;20044;-60
2023/10/09 13:21:31;;;;;;;0.25;0.25;;;16.80;99.90;;;;;;5111865;28;20047;-60
2023/10/09 13:24:00;;;;;;;0.73;0.52;;;17.30;99.90;;;;;;5112023;28;20066;-61
2023/10/09 13:26:29;;;;;;;0.10;0.10;;;16.90;99.90;;;;;;5111397;28;20131;-62
2023/10/09 13:28:56;;;;;;;0.95;0.73;;;17.20;99.90;;;;;;5111964;28;20819;-60
2023/10/09 13:31:26;;;;;;;0.95;0.70;;;17.10;99.90;;;;;;5111574;28;20051;-59
2023/10/09 13:33:58;;;;;;;6.93;0.32;;;17.20;99.90;;;;;;5107773;27;20046;-61
2023/10/09 13:36:32;;;;;;;0.47;0.38;;;16.90;99.90;;;;;;5111397;28;20079;-61
2023/10/09 13:39:22;;;;;;;0.20;0.20;;;16.90;99.90;;;;;;5111719;28;20116;-61
2023/10/09 13:41:45;;;;;;;5.57;0.28;;;17.30;99.90;;;;;;5090530;28;20150;-60
2023/10/09 13:44:10;;;;;;;0.35;0.35;;;16.50;99.90;;;;;;5090679;28;20090;-62
2023/10/09 13:46:42;;;;;;;0.20;0.20;;;17.20;99.90;;;;;;5110050;28;20418;-60
2023/10/09 13:49:14;;;;;;;0.10;0.10;;;17.20;99.90;;;;;;5111292;28;20105;-61
2023/10/09 13:51:44;;;;;;;0.20;0.20;;;17.10;99.90;;;;;;5109671;28;20050;-62
2023/10/09 13:54:48;;;;;;;0.50;0.50;;;17.20;99.90;;;;;;5111112;28;20050;-61
2023/10/09 13:57:07;;;;;;;0.20;0.20;;;16.90;99.90;;;;;;5107096;28;20054;-60
2023/10/09 13:59:35;;;;;;;4.35;0.75;;;16.70;99.90;;;;;;5111081;28;20048;-61
2023/10/09 14:02:08;;;;;;;2.30;2.03;;;17.00;99.90;;;;;;5110626;28;20410;-61
2023/10/09 14:04:35;;;;;;;0.25;0.25;;;17.10;99.90;;;;;;5110903;28;20063;-62
2023/10/09 14:07:01;;;;;;;0.20;0.20;;;16.70;99.90;;;;;;5110710;28;20150;-61
2023/10/09 14:09:30;;;;;;;0.30;0.30;;;16.80;99.90;;;;;;5110346;28;20048;-61
2023/10/09 14:12:08;;;;;;;4.60;1.98;;;17.00;99.90;;;;;;5090523;28;20059;-61
2023/10/09 14:14:38;;;;;;;0.60;0.20;;;16.70;99.90;;;;;;5091446;28;20048;-60
2023/10/09 14:17:11;;;;;;;0.10;0.10;;;16.70;99.90;;;;;;5109039;28;20130;-59
2023/10/09 14:19:47;;;;;;;0.10;0.10;;;17.10;99.90;;;;;;5110503;28;20048;-60
2023/10/09 14:22:15;;;;;;;1.35;0.22;;;17.00;99.90;;;;;;5109894;28;20399;-60
2023/10/09 14:24:45;;;;;;;0.20;0.20;;;17.30;99.90;;;;;;5107089;28;20126;-62
2023/10/09 14:27:20;;;;;;;0.10;0.10;;;17.00;99.90;;;;;;5108889;28;20051;-61
2023/10/09 14:29:46;;;;;;;0.55;0.30;;;17.10;99.90;;;;;;5110337;28;20387;-61
2023/10/09 14:32:15;;;;;;;0.20;0.20;;;17.10;99.90;;;;;;5110218;28;20652;-61
2023/10/09 14:34:54;;;;;;;0.10;0.10;;;17.20;99.90;;;;;;5110434;28;20052;-62
2023/10/09 14:37:20;;;;;;;0.30;0.30;;;16.50;99.90;;;;;;5111002;28;20199;-60
2023/10/09 14:39:48;;;;;;;0.30;0.30;;;16.90;99.90;;;;;;5110781;28;20379;-60
2023/10/09 14:42:17;;;;;;;3.60;1.05;;;17.10;99.90;;;;;;5109581;28;20485;-61
2023/10/09 14:44:47;;;;;;;1.65;0.25;;;17.30;99.90;;;;;;5110942;28;20059;-60
2023/10/09 14:47:18;;;;;;;0.70;0.52;;;16.90;99.90;;;;;;5114020;27;20554;-61
2023/10/09 14:49:47;;;;;;;0.17;0.17;;;17.10;99.90;;;;;;5114270;28;20494;-61
2023/10/09 14:52:18;;;;;;;0.13;0.13;;;17.00;99.90;;;;;;5114288;28;20579;-61
2023/10/09 14:54:44;;;;;;;0.17;0.17;;;17.30;99.90;;;;;;5114828;28;20075;-60
2023/10/09 14:57:11;;;;;;;0.75;0.75;;;17.20;99.90;;;;;;5114344;28;20503;-60
2023/10/09 14:59:38;;;;;;;0.40;0.40;;;17.10;99.90;;;;;;5113104;28;20434;-60
2023/10/09 15:02:05;;;;;;;0.47;0.43;;;17.00;99.90;;;;;;5113624;28;20491;-62
2023/10/09 15:04:31;;;;;;;0.20;0.20;;;17.00;99.90;;;;;;5114305;27;20062;-59
2023/10/09 15:06:57;;;;;;;0.10;0.10;;;16.60;99.90;;;;;;5114167;28;20051;-61
2023/10/09 15:09:28;;;;;;;0.20;0.20;;;17.20;99.90;;;;;;5114064;28;20044;-60
2023/10/09 15:11:54;;;;;;;0.77;0.63;;;17.00;99.90;;;;;;5113926;28;20055;-62
2023/10/09 15:14:20;;;;;;;1.08;0.75;;;16.90;99.90;;;;;;5113798;28;20043;-62
2023/10/09 15:16:47;;;;;;;0.10;0.10;;;16.70;99.90;;;;;;5110712;27;20052;-61
2023/10/09 15:19:13;;;;;;;0.00;0.00;;;16.50;99.90;;;;;;5117008;27;20089;-62
2023/10/09 15:21:46;;;;;;;0.17;0.10;;;17.00;99.90;;;;;;5120443;27;20196;-61
2023/10/09 15:24:15;;;;;;;0.38;0.10;;;16.60;99.90;;;;;;5119420;27;20078;-61
2023/10/09 15:26:42;;;;;;;0.05;0.05;;;16.90;99.90;;;;;;5122503;27;20521;-61
2023/10/09 15:29:09;;;;;;;5.60;0.22;;;16.40;99.90;;;;;;5116192;27;20563;-66
2023/10/09 15:31:36;;;;;;;10.68;0.38;;;16.70;99.90;;;;;;5112582;27;20118;-59
2023/10/09 15:34:02;;;;;;;0.28;0.28;;;16.90;99.90;;;;;;5113010;28;20139;-62
2023/10/09 15:36:32;;;;;;;0.47;0.30;;;16.70;99.90;;;;;;5113165;28;20055;-60
2023/10/09 15:39:01;;;;;;;3.97;0.80;;;16.80;99.90;;;;;;5112767;28;20088;-61
2023/10/09 15:41:29;;;;;;;0.10;0.10;;;16.90;99.90;;;;;;5121892;27;20052;-63
2023/10/09 15:43:58;;;;;;;0.20;0.20;;;16.60;99.90;;;;;;5123153;27;20486;-61
2023/10/09 15:46:25;;;;;;;0.13;0.13;;;16.90;99.90;;;;;;5131369;27;20496;-61
2023/10/09 15:48:53;;;;;;;0.10;0.10;;;16.90;99.90;;;;;;5132503;27;20074;-63
2023/10/09 15:51:19;;;;;;;0.05;0.05;;;16.80;99.90;;;;;;5132483;27;20055;-62
2023/10/09 15:53:46;;;;;;;0.00;0.00;;;16.90;99.90;;;;;;5132083;27;20047;-61
2023/10/09 15:56:13;;;;;;;0.22;0.20;;;17.10;99.90;;;;;;5130700;27;20079;-60
2023/10/09 15:58:42;;;;;;;0.68;0.68;;;16.80;99.90;;;;;;5134298;27;20110;-63
2023/10/09 16:01:15;;;;;;;0.10;0.10;;;16.70;99.90;;;;;;5134327;27;20062;-61
2023/10/09 16:03:47;;;;;;;0.22;0.22;;;16.70;99.90;;;;;;5134037;27;20489;-61